Time;durP1;ratioP1;P1;durP2;ratioP2;P2;SDS_P1;SDS_P2;PMS_P1;PMS_P2;Temp;Humidity;BMP_temperature;BMP_pressure;BME280_temperature;BME280_humidity;BME280_pressure;Samples;Min_cycle;Max_cycle;Signal;HPM_P1;HPM_P2
2021/04/02 00:01:59;;;;;;;15.00;5.78;;;5.30;82.10;;;;;;5073520;28;20376;-76
2021/04/02 00:04:25;;;;;;;15.57;5.93;;;5.30;82.00;;;;;;5073966;28;20376;-76
2021/04/02 00:06:50;;;;;;;14.53;6.17;;;5.30;82.20;;;;;;5088779;28;20762;-77
2021/04/02 00:09:16;;;;;;;11.67;5.30;;;5.30;82.00;;;;;;5073053;28;20395;-76
2021/04/02 00:11:41;;;;;;;9.60;4.80;;;5.30;81.90;;;;;;5073258;28;20379;-76
2021/04/02 00:14:08;;;;;;;14.75;5.65;;;5.30;82.00;;;;;;5073488;28;20780;-76
2021/04/02 00:16:35;;;;;;;10.70;5.45;;;5.20;82.20;;;;;;5072818;28;20383;-77
2021/04/02 00:19:00;;;;;;;11.52;5.10;;;5.40;81.30;;;;;;5073046;28;20414;-76
2021/04/02 00:21:26;;;;;;;10.13;5.20;;;5.30;81.60;;;;;;5073235;28;20470;-77
2021/04/02 00:23:51;;;;;;;16.77;6.10;;;5.10;82.70;;;;;;5055387;28;20376;-77
2021/04/02 00:26:19;;;;;;;15.10;6.03;;;5.20;82.50;;;;;;5055374;28;20396;-77
2021/04/02 00:28:47;;;;;;;10.57;5.40;;;5.40;82.10;;;;;;5054348;28;20791;-77
2021/04/02 00:31:13;;;;;;;14.60;5.90;;;5.50;80.80;;;;;;5088727;28;20947;-77
2021/04/02 00:33:38;;;;;;;14.25;5.93;;;5.10;82.90;;;;;;5054920;28;20471;-77
2021/04/02 00:36:05;;;;;;;13.23;6.00;;;4.90;83.60;;;;;;5072818;28;20388;-77
2021/04/02 00:38:31;;;;;;;9.82;5.72;;;5.10;83.00;;;;;;5072315;28;20420;-77
2021/04/02 00:41:04;;;;;;;13.18;5.88;;;5.00;83.50;;;;;;5087878;28;20776;-78
2021/04/02 00:43:33;;;;;;;17.35;6.00;;;5.20;82.80;;;;;;5073204;28;20411;-77
2021/04/02 00:45:59;;;;;;;16.30;6.47;;;5.10;83.20;;;;;;5072711;28;20867;-77
2021/04/02 00:49:02;;;;;;;12.75;5.55;;;5.00;84.10;;;;;;5088239;28;20392;-76
2021/04/02 00:51:29;;;;;;;16.85;6.10;;;5.10;84.00;;;;;;5071539;28;20372;-76
2021/04/02 00:53:55;;;;;;;10.53;5.47;;;5.20;83.60;;;;;;5072978;28;20441;-77
2021/04/02 00:56:21;;;;;;;19.85;8.00;;;5.30;83.50;;;;;;5072549;28;20383;-76
2021/04/02 00:58:47;;;;;;;11.50;5.85;;;5.10;84.60;;;;;;5072241;28;20415;-77
2021/04/02 01:01:14;;;;;;;15.50;5.50;;;5.10;84.50;;;;;;5072672;28;20658;-76
2021/04/02 01:03:42;;;;;;;12.80;5.88;;;5.20;83.90;;;;;;5072390;28;20376;-77
2021/04/02 01:06:13;;;;;;;11.67;5.67;;;5.20;83.80;;;;;;5088728;28;20430;-77
2021/04/02 01:08:38;;;;;;;10.60;5.47;;;5.30;83.80;;;;;;5071294;28;20399;-77
2021/04/02 01:11:09;;;;;;;11.73;5.20;;;5.70;82.30;;;;;;5072563;28;20847;-76
2021/04/02 01:13:45;;;;;;;11.13;5.15;;;5.70;81.30;;;;;;5087725;28;20392;-77
2021/04/02 01:16:17;;;;;;;15.13;5.67;;;5.80;81.20;;;;;;5054477;28;20487;-77
2021/04/02 01:19:00;;;;;;;12.10;5.50;;;5.30;83.10;;;;;;5071425;28;20498;-78
2021/04/02 01:21:44;;;;;;;13.80;6.85;;;5.00;84.50;;;;;;5072228;28;20371;-77
2021/04/02 01:24:22;;;;;;;18.60;5.72;;;5.00;84.70;;;;;;5072330;28;20388;-78
2021/04/02 01:27:12;;;;;;;14.02;6.05;;;5.00;84.60;;;;;;5071673;28;20466;-78
2021/04/02 01:29:54;;;;;;;21.50;5.88;;;4.90;84.90;;;;;;5072235;28;20391;-78
2021/04/02 01:32:26;;;;;;;16.48;6.63;;;4.80;85.30;;;;;;5087660;28;20843;-78
2021/04/02 01:34:57;;;;;;;15.27;6.32;;;4.70;85.80;;;;;;5071665;28;20372;-77
2021/04/02 01:37:31;;;;;;;18.42;6.43;;;4.80;85.60;;;;;;5071443;28;20967;-77
2021/04/02 01:40:01;;;;;;;16.45;6.32;;;4.80;85.10;;;;;;5071655;28;20764;-77
2021/04/02 01:42:28;;;;;;;13.88;6.45;;;4.90;84.50;;;;;;5054093;28;20387;-78
2021/04/02 01:44:54;;;;;;;12.98;6.40;;;4.80;85.30;;;;;;5071542;28;20380;-78
2021/04/02 01:47:22;;;;;;;13.30;6.20;;;4.60;86.30;;;;;;5071429;28;20390;-78
2021/04/02 01:49:49;;;;;;;12.20;6.00;;;4.60;86.10;;;;;;5053570;28;20395;-78
2021/04/02 01:52:15;;;;;;;18.25;6.20;;;4.70;85.70;;;;;;5087063;28;20844;-77
2021/04/02 01:54:42;;;;;;;13.55;5.72;;;4.90;84.70;;;;;;5087148;28;20376;-77
2021/04/02 01:57:10;;;;;;;15.20;5.78;;;5.10;83.70;;;;;;5053193;28;20745;-76
2021/04/02 01:59:36;;;;;;;12.67;5.10;;;5.20;83.10;;;;;;5071463;28;20411;-77
2021/04/02 02:02:03;;;;;;;12.27;4.85;;;5.40;81.90;;;;;;5071211;28;20376;-76
2021/04/02 02:04:29;;;;;;;12.57;5.10;;;5.40;81.50;;;;;;5087262;28;20741;-76
2021/04/02 02:06:55;;;;;;;13.02;5.10;;;5.40;81.20;;;;;;5070377;28;20380;-76
2021/04/02 02:09:26;;;;;;;11.43;5.60;;;5.10;82.20;;;;;;5086846;28;20935;-77
2021/04/02 02:11:56;;;;;;;16.10;6.53;;;4.70;84.50;;;;;;5070951;28;20379;-78
2021/04/02 02:14:24;;;;;;;17.90;6.38;;;4.30;86.50;;;;;;5053456;28;20379;-78
2021/04/02 02:16:53;;;;;;;15.07;6.07;;;4.40;85.80;;;;;;5070616;28;20380;-78
2021/04/02 02:19:21;;;;;;;16.27;6.63;;;4.70;85.60;;;;;;5086696;28;20506;-78
2021/04/02 02:21:48;;;;;;;16.67;6.57;;;4.30;86.80;;;;;;5070863;28;20375;-78
2021/04/02 02:24:15;;;;;;;14.63;6.18;;;4.30;86.50;;;;;;5071242;28;20376;-78
2021/04/02 02:26:43;;;;;;;14.15;6.15;;;4.50;85.80;;;;;;5070674;28;20381;-78
2021/04/02 02:29:10;;;;;;;16.00;7.00;;;4.70;85.40;;;;;;5070862;28;20391;-78
2021/04/02 02:31:36;;;;;;;13.52;6.55;;;4.40;86.10;;;;;;5086664;28;20422;-78
2021/04/02 02:34:03;;;;;;;13.77;6.57;;;4.40;86.70;;;;;;5070638;28;20378;-78
2021/04/02 02:36:30;;;;;;;10.82;5.72;;;4.50;86.40;;;;;;5085347;28;20415;-77
2021/04/02 02:38:56;;;;;;;19.67;5.85;;;4.90;85.10;;;;;;5070548;28;20439;-78
2021/04/02 02:41:26;;;;;;;13.63;5.53;;;5.30;82.70;;;;;;5052963;28;20418;-78
2021/04/02 02:43:52;;;;;;;12.35;5.78;;;5.30;82.10;;;;;;5070892;28;20380;-78
2021/04/02 02:46:17;;;;;;;13.18;5.70;;;5.30;82.70;;;;;;5069717;28;20483;-78
2021/04/02 02:48:48;;;;;;;15.77;5.73;;;5.40;81.60;;;;;;5069737;28;20930;-78
2021/04/02 02:51:14;;;;;;;12.85;5.93;;;5.10;82.50;;;;;;5086406;28;20390;-78
2021/04/02 02:53:42;;;;;;;10.60;5.93;;;4.90;84.60;;;;;;5070693;28;20423;-78
2021/04/02 02:56:09;;;;;;;14.85;6.13;;;4.80;84.80;;;;;;5052564;28;20406;-78
2021/04/02 02:58:40;;;;;;;14.00;6.40;;;4.90;84.80;;;;;;5070159;28;20396;-77
2021/04/02 03:01:07;;;;;;;13.23;5.85;;;4.70;85.60;;;;;;5070440;28;20744;-77
2021/04/02 03:03:33;;;;;;;14.25;6.47;;;4.40;87.30;;;;;;5070632;28;20805;-78
2021/04/02 03:06:00;;;;;;;16.42;7.07;;;4.50;87.10;;;;;;5052249;28;20415;-78
2021/04/02 03:08:30;;;;;;;19.35;7.07;;;4.40;87.90;;;;;;5070230;28;20400;-77
2021/04/02 03:10:57;;;;;;;14.37;7.00;;;4.30;88.30;;;;;;5069985;28;20506;-78
2021/04/02 03:13:23;;;;;;;13.10;6.32;;;4.50;87.50;;;;;;5085988;28;20442;-78
2021/04/02 03:15:51;;;;;;;15.63;6.73;;;5.00;86.10;;;;;;5070296;28;20376;-77
2021/04/02 03:18:18;;;;;;;16.33;6.88;;;4.70;86.60;;;;;;5070150;28;20416;-78
2021/04/02 03:20:46;;;;;;;18.60;6.77;;;4.70;86.70;;;;;;5070524;28;20383;-78
2021/04/02 03:23:16;;;;;;;20.43;7.70;;;4.60;87.10;;;;;;5085703;28;20850;-78
2021/04/02 03:25:45;;;;;;;17.27;7.83;;;4.80;86.30;;;;;;5052294;28;20395;-78
2021/04/02 03:28:11;;;;;;;25.27;8.43;;;4.40;87.80;;;;;;5051951;28;20732;-78
2021/04/02 03:30:38;;;;;;;17.92;8.18;;;4.40;88.00;;;;;;5070105;28;20376;-77
2021/04/02 03:33:15;;;;;;;20.27;8.65;;;4.50;87.80;;;;;;5069964;28;20380;-78
2021/04/02 03:35:43;;;;;;;21.08;9.13;;;4.60;87.40;;;;;;5070062;28;20395;-77
2021/04/02 03:38:10;;;;;;;18.23;8.70;;;4.40;88.00;;;;;;5069365;28;20702;-78
2021/04/02 03:40:37;;;;;;;22.38;9.48;;;4.40;88.00;;;;;;5052646;28;20892;-77
2021/04/02 03:43:05;;;;;;;22.25;9.35;;;4.40;88.20;;;;;;5069964;28;20465;-78
2021/04/02 03:45:32;;;;;;;20.23;9.70;;;4.40;88.50;;;;;;5052010;28;20387;-77
2021/04/02 03:48:00;;;;;;;24.17;9.70;;;4.40;88.40;;;;;;5070009;28;20384;-78
2021/04/02 03:50:30;;;;;;;25.35;10.00;;;4.40;88.40;;;;;;5070119;28;20391;-78
2021/04/02 03:53:09;;;;;;;23.08;9.55;;;4.40;88.50;;;;;;5052224;28;20392;-78
2021/04/02 03:55:40;;;;;;;16.33;8.95;;;4.40;88.50;;;;;;5069873;28;20387;-78
2021/04/02 03:58:09;;;;;;;17.27;9.88;;;4.40;88.10;;;;;;5069644;28;20379;-78
2021/04/02 04:00:44;;;;;;;23.65;10.10;;;4.20;89.10;;;;;;5069972;28;20408;-77
2021/04/02 04:03:11;;;;;;;19.30;9.35;;;4.20;89.50;;;;;;5070215;28;20376;-77
2021/04/02 04:05:38;;;;;;;20.52;10.15;;;4.30;89.50;;;;;;5070106;28;20445;-78
2021/04/02 04:08:08;;;;;;;21.45;10.48;;;4.30;89.50;;;;;;5069365;28;20398;-78
2021/04/02 04:10:34;;;;;;;22.10;10.45;;;4.30;89.60;;;;;;5070269;28;20391;-77
2021/04/02 04:13:02;;;;;;;23.92;11.43;;;4.20;89.80;;;;;;5069647;28;20403;-79
2021/04/02 04:15:28;;;;;;;32.05;12.55;;;4.10;90.10;;;;;;5069881;28;20466;-79
2021/04/02 04:17:55;;;;;;;32.53;11.43;;;4.10;90.20;;;;;;5055022;28;20902;-79
2021/04/02 04:20:22;;;;;;;22.45;10.50;;;4.30;89.70;;;;;;5073268;28;20396;-79
2021/04/02 04:22:49;;;;;;;26.20;11.27;;;4.20;89.70;;;;;;5072965;28;20887;-77
2021/04/02 04:25:23;;;;;;;25.23;11.10;;;4.30;89.50;;;;;;5073312;28;20851;-79
2021/04/02 04:27:50;;;;;;;25.88;11.88;;;4.20;89.70;;;;;;5072574;28;20384;-79
2021/04/02 04:30:17;;;;;;;20.80;11.73;;;4.20;90.10;;;;;;5072274;28;20419;-79
2021/04/02 04:32:42;;;;;;;28.17;11.13;;;4.10;90.40;;;;;;5055284;28;20423;-79
2021/04/02 04:35:11;;;;;;;30.57;11.50;;;4.20;90.40;;;;;;5072865;28;20923;-79
2021/04/02 04:37:39;;;;;;;24.77;11.13;;;4.20;90.20;;;;;;5055321;28;20812;-79
2021/04/02 04:40:06;;;;;;;31.55;11.85;;;4.20;89.90;;;;;;5072862;28;20411;-79
2021/04/02 04:42:33;;;;;;;29.33;11.77;;;4.10;90.70;;;;;;5071668;28;20399;-79
2021/04/02 04:45:00;;;;;;;27.57;11.77;;;4.00;91.10;;;;;;5072325;28;20412;-79
2021/04/02 04:47:26;;;;;;;32.60;12.15;;;4.00;90.80;;;;;;5071152;28;20992;-79
2021/04/02 04:49:52;;;;;;;24.73;10.63;;;4.00;90.70;;;;;;5072527;28;20391;-79
2021/04/02 04:52:20;;;;;;;27.97;11.37;;;3.90;91.40;;;;;;5072864;28;20489;-79
2021/04/02 04:54:50;;;;;;;28.27;11.63;;;4.10;90.60;;;;;;5071006;28;20468;-79
2021/04/02 04:57:16;;;;;;;24.70;11.13;;;4.00;90.80;;;;;;5072628;28;20437;-79
2021/04/02 04:59:43;;;;;;;29.83;11.75;;;4.10;90.80;;;;;;5072376;28;20771;-79
2021/04/02 05:02:11;;;;;;;29.33;10.98;;;3.80;91.50;;;;;;5071035;28;20407;-79
2021/04/02 05:04:39;;;;;;;31.95;11.15;;;3.90;91.20;;;;;;5054734;28;20993;-79
2021/04/02 05:07:07;;;;;;;25.43;11.27;;;3.80;91.50;;;;;;5071815;28;20412;-79
2021/04/02 05:09:32;;;;;;;32.50;11.10;;;3.80;91.60;;;;;;5072709;28;20894;-79
2021/04/02 05:11:59;;;;;;;28.83;11.45;;;3.80;91.80;;;;;;5071964;28;20459;-79
2021/04/02 05:14:25;;;;;;;33.13;11.27;;;3.90;91.30;;;;;;5072549;28;20376;-79
2021/04/02 05:16:51;;;;;;;25.70;11.23;;;3.80;91.70;;;;;;5053544;28;20392;-77
2021/04/02 05:19:18;;;;;;;26.17;12.27;;;3.70;91.70;;;;;;5054320;28;20514;-79
2021/04/02 05:21:45;;;;;;;29.27;11.05;;;3.80;91.50;;;;;;5071823;28;20383;-79
2021/04/02 05:24:11;;;;;;;23.67;11.70;;;3.90;90.80;;;;;;5071975;28;20553;-79
2021/04/02 05:26:37;;;;;;;25.45;12.07;;;3.70;91.30;;;;;;5071710;28;20725;-79
2021/04/02 05:29:04;;;;;;;34.47;13.27;;;3.50;92.10;;;;;;5071933;28;20380;-79
2021/04/02 05:31:30;;;;;;;35.80;12.97;;;3.50;92.50;;;;;;5072163;28;20400;-77
2021/04/02 05:33:56;;;;;;;35.20;13.57;;;3.40;92.40;;;;;;5071727;28;20471;-78
2021/04/02 05:36:22;;;;;;;26.27;12.60;;;3.40;93.00;;;;;;5072224;28;20546;-78
2021/04/02 05:38:48;;;;;;;38.10;13.97;;;3.40;93.10;;;;;;5053338;28;20507;-78
2021/04/02 05:41:19;;;;;;;33.65;13.15;;;3.40;92.90;;;;;;5072259;28;20438;-78
2021/04/02 05:44:01;;;;;;;30.63;13.23;;;3.40;93.20;;;;;;5071558;28;20437;-78
2021/04/02 05:46:29;;;;;;;35.13;12.52;;;3.40;92.90;;;;;;5071485;28;20433;-78
2021/04/02 05:49:00;;;;;;;33.72;13.98;;;3.50;92.70;;;;;;5071312;28;20519;-79
2021/04/02 05:51:27;;;;;;;29.42;13.73;;;3.50;92.80;;;;;;5070153;28;20380;-78
2021/04/02 05:53:57;;;;;;;36.22;15.05;;;3.50;92.60;;;;;;5071539;28;20437;-79
2021/04/02 05:56:24;;;;;;;50.17;15.13;;;3.40;93.30;;;;;;5053266;28;20760;-78
2021/04/02 05:58:50;;;;;;;40.53;15.75;;;3.40;93.30;;;;;;5053308;28;20411;-78
2021/04/02 06:01:17;;;;;;;34.63;14.68;;;3.40;93.70;;;;;;5071279;28;20414;-79
2021/04/02 06:03:43;;;;;;;32.97;13.48;;;3.70;93.40;;;;;;5053443;28;20737;-78
2021/04/02 06:06:12;;;;;;;41.60;14.48;;;3.70;92.30;;;;;;5071300;28;20392;-78
2021/04/02 06:08:42;;;;;;;44.03;16.23;;;3.50;92.80;;;;;;5070822;28;20411;-78
2021/04/02 06:11:08;;;;;;;41.58;14.70;;;3.50;93.40;;;;;;5070968;28;20388;-78
2021/04/02 06:13:33;;;;;;;42.58;15.52;;;3.50;93.30;;;;;;5070181;28;20380;-78
2021/04/02 06:15:59;;;;;;;36.40;15.23;;;3.60;93.30;;;;;;5069329;28;20383;-77
2021/04/02 06:18:25;;;;;;;38.45;13.85;;;3.80;92.70;;;;;;5052467;28;20442;-77
2021/04/02 06:20:53;;;;;;;35.93;13.87;;;3.90;92.60;;;;;;5071119;28;20438;-77
2021/04/02 06:23:26;;;;;;;34.60;14.95;;;3.90;92.30;;;;;;5052983;28;20864;-77
2021/04/02 06:25:54;;;;;;;30.48;13.18;;;4.00;92.10;;;;;;5069662;28;20391;-77
2021/04/02 06:28:28;;;;;;;34.50;14.10;;;4.00;91.90;;;;;;5070432;28;20376;-77
2021/04/02 06:31:00;;;;;;;35.28;13.57;;;4.00;91.80;;;;;;5053343;28;20399;-77
2021/04/02 06:33:39;;;;;;;37.38;14.07;;;4.00;91.60;;;;;;5071120;28;20383;-77
2021/04/02 06:36:14;;;;;;;29.05;12.60;;;4.00;92.00;;;;;;5071186;28;20433;-77
2021/04/02 06:38:45;;;;;;;27.92;12.75;;;4.10;91.60;;;;;;5070093;28;20414;-77
2021/04/02 06:41:12;;;;;;;33.78;12.27;;;4.10;91.80;;;;;;5070782;28;20380;-77
2021/04/02 06:43:45;;;;;;;29.38;12.73;;;4.00;91.60;;;;;;5071398;28;20402;-77
2021/04/02 06:46:12;;;;;;;33.10;12.25;;;4.20;91.40;;;;;;5052686;28;20388;-77
2021/04/02 06:48:38;;;;;;;25.05;11.57;;;4.10;91.30;;;;;;5070080;28;20402;-77
2021/04/02 06:51:11;;;;;;;28.30;11.67;;;4.30;90.40;;;;;;5070094;28;20376;-77
2021/04/02 06:53:37;;;;;;;28.42;12.50;;;4.20;90.70;;;;;;5051427;28;20391;-77
2021/04/02 06:56:07;;;;;;;32.13;14.57;;;4.10;91.30;;;;;;5067085;28;20466;-77
2021/04/02 06:58:33;;;;;;;31.02;13.90;;;4.00;91.60;;;;;;5050347;28;20490;-77
2021/04/02 07:01:03;;;;;;;32.13;15.35;;;4.00;92.00;;;;;;5067350;28;20491;-77
2021/04/02 07:03:31;;;;;;;42.25;14.30;;;3.80;92.50;;;;;;5068632;28;20376;-77
2021/04/02 07:05:57;;;;;;;31.75;14.77;;;3.70;92.60;;;;;;5068748;28;20387;-77
2021/04/02 07:08:25;;;;;;;33.60;12.90;;;3.70;92.80;;;;;;5068461;28;20457;-77
2021/04/02 07:10:51;;;;;;;24.48;12.63;;;3.80;92.60;;;;;;5070858;28;20517;-77
2021/04/02 07:13:17;;;;;;;33.40;13.73;;;3.80;92.40;;;;;;5068522;28;20388;-77
2021/04/02 07:15:43;;;;;;;36.17;14.65;;;3.70;92.90;;;;;;5070514;28;20379;-77
2021/04/02 07:18:11;;;;;;;36.80;14.57;;;3.70;92.80;;;;;;5069556;28;20389;-77
2021/04/02 07:20:37;;;;;;;28.13;12.27;;;3.70;93.20;;;;;;5070501;28;20682;-77
2021/04/02 07:23:03;;;;;;;38.28;15.45;;;3.80;92.70;;;;;;5070009;28;20383;-77
2021/04/02 07:25:29;;;;;;;36.55;14.10;;;3.70;93.10;;;;;;5070395;28;20395;-77
2021/04/02 07:27:57;;;;;;;36.58;13.00;;;3.90;92.80;;;;;;5069770;28;20383;-77
2021/04/02 07:30:24;;;;;;;31.55;12.30;;;4.10;91.80;;;;;;5070088;28;20388;-77
2021/04/02 07:32:50;;;;;;;28.00;11.73;;;4.10;91.60;;;;;;5070273;28;20371;-77
2021/04/02 07:35:19;;;;;;;25.90;11.45;;;4.10;91.80;;;;;;5052098;28;20394;-77
2021/04/02 07:37:53;;;;;;;25.63;11.45;;;4.10;91.50;;;;;;5069702;28;20391;-77
2021/04/02 07:40:24;;;;;;;29.08;11.98;;;4.10;91.70;;;;;;5068321;28;20416;-77
2021/04/02 07:42:54;;;;;;;28.35;12.07;;;3.90;92.20;;;;;;5070194;28;20379;-76
2021/04/02 07:45:23;;;;;;;28.45;11.30;;;4.00;92.40;;;;;;5069961;28;20384;-77
2021/04/02 07:48:16;;;;;;;23.48;9.75;;;4.00;92.30;;;;;;5051553;28;20395;-77
2021/04/02 07:50:48;;;;;;;25.95;10.50;;;3.90;92.30;;;;;;5070420;28;20455;-77
2021/04/02 07:53:36;;;;;;;20.70;10.40;;;4.00;92.40;;;;;;5073620;28;20372;-77
2021/04/02 07:56:07;;;;;;;21.55;10.13;;;4.10;92.00;;;;;;5073131;28;20402;-77
2021/04/02 07:58:39;;;;;;;23.75;10.32;;;4.00;92.20;;;;;;5073021;28;20434;-77
2021/04/02 08:01:04;;;;;;;25.25;10.25;;;4.00;92.30;;;;;;5075707;28;20442;-77
2021/04/02 08:03:31;;;;;;;28.00;9.55;;;4.20;91.70;;;;;;5093716;28;20827;-77
2021/04/02 08:06:33;;;;;;;25.77;10.40;;;4.10;91.60;;;;;;5075630;28;20878;-77
2021/04/02 08:09:00;;;;;;;21.88;9.25;;;4.20;91.30;;;;;;5093572;28;20393;-77
2021/04/02 08:11:34;;;;;;;17.63;8.27;;;4.20;91.10;;;;;;5093740;28;20469;-77
2021/04/02 08:14:02;;;;;;;15.30;8.80;;;4.20;90.60;;;;;;5093802;28;20378;-77
2021/04/02 08:16:53;;;;;;;28.30;9.52;;;4.20;90.30;;;;;;5093305;28;20382;-77
2021/04/02 08:19:19;;;;;;;18.25;8.93;;;4.30;90.00;;;;;;5093665;28;20410;-77
2021/04/02 08:21:49;;;;;;;27.67;8.60;;;4.30;89.60;;;;;;5109380;28;20870;-77
2021/04/02 08:24:16;;;;;;;17.67;8.60;;;4.20;89.80;;;;;;5094148;28;20557;-77
2021/04/02 08:26:43;;;;;;;18.48;8.18;;;4.30;90.10;;;;;;5074925;28;20409;-76
2021/04/02 08:29:10;;;;;;;19.17;8.43;;;4.30;90.30;;;;;;5093294;28;20472;-77
2021/04/02 08:31:40;;;;;;;17.23;6.90;;;4.60;89.60;;;;;;5093737;28;20420;-77
2021/04/02 08:34:06;;;;;;;16.20;6.70;;;4.50;89.00;;;;;;5093072;28;20680;-77
2021/04/02 08:36:31;;;;;;;13.13;6.30;;;4.50;89.20;;;;;;5091701;28;20396;-77
2021/04/02 08:38:58;;;;;;;13.63;6.27;;;4.70;88.30;;;;;;5092931;28;20420;-77
2021/04/02 08:41:26;;;;;;;14.80;6.13;;;4.70;87.30;;;;;;5093433;28;20375;-77
2021/04/02 08:43:52;;;;;;;14.00;7.00;;;4.50;87.90;;;;;;5108734;28;20735;-77
2021/04/02 08:46:31;;;;;;;20.10;7.40;;;4.70;87.90;;;;;;5075017;28;20525;-76
2021/04/02 08:48:57;;;;;;;15.70;6.40;;;4.90;87.40;;;;;;5092589;28;20379;-77
2021/04/02 08:51:23;;;;;;;19.17;7.10;;;4.70;87.10;;;;;;5092925;28;20724;-77
2021/04/02 08:53:48;;;;;;;17.98;6.75;;;4.50;87.40;;;;;;5093051;28;20485;-75
2021/04/02 08:56:16;;;;;;;16.80;6.57;;;4.90;86.90;;;;;;5092992;28;20374;-77
2021/04/02 08:58:42;;;;;;;13.48;6.45;;;4.90;86.30;;;;;;5074377;28;20410;-75
2021/04/02 09:01:07;;;;;;;18.88;6.88;;;5.10;86.60;;;;;;5092763;28;20873;-77
2021/04/02 09:03:33;;;;;;;14.35;6.38;;;5.00;86.30;;;;;;5092736;28;20477;-77
2021/04/02 09:05:59;;;;;;;20.60;8.50;;;5.00;86.00;;;;;;5108770;28;20386;-77
2021/04/02 09:08:25;;;;;;;18.30;6.90;;;4.90;86.40;;;;;;5092357;28;20482;-77
2021/04/02 09:10:52;;;;;;;12.03;6.07;;;4.90;86.70;;;;;;5092593;28;20860;-77
2021/04/02 09:13:27;;;;;;;11.25;6.30;;;4.90;86.50;;;;;;5074495;28;20894;-77
2021/04/02 09:15:53;;;;;;;23.00;7.10;;;5.00;86.20;;;;;;5092478;28;20428;-77
2021/04/02 09:18:27;;;;;;;15.10;6.07;;;5.10;85.70;;;;;;5091637;28;20720;-77
2021/04/02 09:20:53;;;;;;;16.58;6.38;;;5.20;85.40;;;;;;5092641;28;20417;-76
2021/04/02 09:23:19;;;;;;;15.23;6.70;;;5.30;85.10;;;;;;5073995;28;20418;-77
2021/04/02 09:25:48;;;;;;;15.52;6.43;;;5.30;85.50;;;;;;5092532;28;20386;-77
2021/04/02 09:28:19;;;;;;;13.88;7.00;;;5.30;85.50;;;;;;5091653;28;20366;-76
2021/04/02 09:30:44;;;;;;;17.17;6.88;;;5.40;85.40;;;;;;5108111;28;20394;-76
2021/04/02 09:33:15;;;;;;;18.73;6.80;;;5.20;85.70;;;;;;5073758;28;20396;-76
2021/04/02 09:35:41;;;;;;;18.83;6.80;;;5.30;85.70;;;;;;5092713;28;20382;-76
2021/04/02 09:38:06;;;;;;;13.90;6.67;;;5.30;85.50;;;;;;5091437;28;20431;-76
2021/04/02 09:40:33;;;;;;;13.23;6.67;;;5.00;85.60;;;;;;5107867;28;20418;-76
2021/04/02 09:42:59;;;;;;;16.73;6.63;;;5.10;85.70;;;;;;5091739;28;20389;-76
2021/04/02 09:45:27;;;;;;;14.20;7.13;;;5.10;85.80;;;;;;5091793;28;20379;-76
2021/04/02 09:47:52;;;;;;;14.00;6.93;;;5.30;85.50;;;;;;5107680;28;20835;-76
2021/04/02 09:50:18;;;;;;;12.23;6.70;;;5.30;85.00;;;;;;5073381;28;20436;-76
2021/04/02 09:52:45;;;;;;;12.50;6.97;;;5.30;85.10;;;;;;5091934;28;20732;-76
2021/04/02 09:55:12;;;;;;;13.17;6.80;;;5.40;84.70;;;;;;5073076;28;20413;-76
2021/04/02 09:57:38;;;;;;;14.73;7.05;;;5.50;85.40;;;;;;5091383;28;20378;-76
2021/04/02 10:00:09;;;;;;;16.75;7.35;;;5.50;84.40;;;;;;5072943;28;20406;-77
2021/04/02 10:02:35;;;;;;;18.65;6.80;;;5.60;84.20;;;;;;5091674;28;20370;-77
2021/04/02 10:05:01;;;;;;;15.70;6.85;;;5.80;83.90;;;;;;5091614;28;20473;-77
2021/04/02 10:07:27;;;;;;;11.97;6.40;;;5.60;83.30;;;;;;5091159;28;20382;-77
2021/04/02 10:09:52;;;;;;;15.87;6.63;;;5.50;83.10;;;;;;5107305;28;20396;-76
2021/04/02 10:12:18;;;;;;;14.07;5.90;;;5.50;82.90;;;;;;5091109;28;20707;-76
2021/04/02 10:14:43;;;;;;;14.80;5.80;;;5.50;83.60;;;;;;5106161;28;20720;-76
2021/04/02 10:17:11;;;;;;;20.23;6.33;;;5.40;83.60;;;;;;5089988;28;20386;-76
2021/04/02 10:19:37;;;;;;;14.18;6.63;;;5.30;84.10;;;;;;5104660;28;20747;-76
2021/04/02 10:22:04;;;;;;;13.70;6.45;;;5.50;83.70;;;;;;5070893;28;20381;-76
2021/04/02 10:24:30;;;;;;;10.90;5.93;;;5.80;83.60;;;;;;5105961;28;20464;-76
2021/04/02 10:26:57;;;;;;;13.85;5.97;;;5.90;82.90;;;;;;5089846;28;20466;-76
2021/04/02 10:29:23;;;;;;;14.40;6.47;;;5.70;82.00;;;;;;5090318;28;20381;-76
2021/04/02 10:31:48;;;;;;;13.50;5.97;;;5.90;81.50;;;;;;5090117;28;20388;-76
2021/04/02 10:34:14;;;;;;;10.73;5.37;;;5.60;82.10;;;;;;5106107;28;20427;-76
2021/04/02 10:36:41;;;;;;;16.15;5.75;;;5.90;82.10;;;;;;5104977;28;20439;-76
2021/04/02 10:39:07;;;;;;;15.48;6.05;;;5.80;81.60;;;;;;5089545;28;20412;-76
2021/04/02 10:41:33;;;;;;;15.70;7.13;;;5.60;82.40;;;;;;5089881;28;20378;-76
2021/04/02 10:43:59;;;;;;;19.23;6.85;;;5.90;82.80;;;;;;5090007;28;20381;-76
2021/04/02 10:46:24;;;;;;;11.00;6.00;;;5.90;82.00;;;;;;5104598;28;20374;-75
2021/04/02 10:48:50;;;;;;;13.33;5.67;;;5.70;81.00;;;;;;5105271;28;20378;-76
2021/04/02 10:51:15;;;;;;;12.03;5.50;;;5.80;80.60;;;;;;5105784;28;20861;-76
2021/04/02 10:53:41;;;;;;;15.47;5.80;;;5.90;81.00;;;;;;5089955;28;20366;-76
2021/04/02 10:56:06;;;;;;;12.45;5.40;;;5.80;80.80;;;;;;5090780;28;20378;-76
2021/04/02 10:58:33;;;;;;;12.25;5.72;;;5.80;80.80;;;;;;5089093;28;20817;-76
2021/04/02 11:00:59;;;;;;;10.90;5.40;;;5.90;80.40;;;;;;5072042;28;20430;-76
2021/04/02 11:03:25;;;;;;;11.98;5.90;;;5.80;80.30;;;;;;5089708;28;20925;-76
2021/04/02 11:05:50;;;;;;;15.32;5.63;;;5.80;80.60;;;;;;5105095;28;20707;-76
2021/04/02 11:08:16;;;;;;;20.80;6.10;;;6.00;80.00;;;;;;5087678;28;20386;-76
2021/04/02 11:10:42;;;;;;;13.80;5.47;;;5.90;79.90;;;;;;5087715;28;20401;-76
2021/04/02 11:13:07;;;;;;;15.65;7.18;;;6.00;80.60;;;;;;5088567;28;20374;-76
2021/04/02 11:15:33;;;;;;;14.83;6.77;;;6.10;79.20;;;;;;5089983;28;20378;-76
2021/04/02 11:17:59;;;;;;;16.17;6.88;;;6.00;79.60;;;;;;5104761;28;20397;-76
2021/04/02 11:20:28;;;;;;;19.52;7.45;;;5.90;81.10;;;;;;5088749;28;20497;-76
2021/04/02 11:22:55;;;;;;;18.80;8.20;;;5.90;80.60;;;;;;5089007;28;20913;-76
2021/04/02 11:25:21;;;;;;;16.30;8.02;;;6.10;81.10;;;;;;5072777;28;20381;-76
2021/04/02 11:27:47;;;;;;;19.77;8.32;;;6.10;79.80;;;;;;5093327;28;20374;-76
2021/04/02 11:30:18;;;;;;;22.50;9.33;;;6.00;80.20;;;;;;5093405;28;20435;-76
2021/04/02 11:32:43;;;;;;;20.80;9.50;;;6.00;80.50;;;;;;5093742;28;20465;-76
2021/04/02 11:35:10;;;;;;;18.45;10.80;;;6.20;79.70;;;;;;5075012;28;20469;-76
2021/04/02 11:37:36;;;;;;;25.50;11.40;;;6.00;79.80;;;;;;5093154;28;20388;-76
2021/04/02 11:40:08;;;;;;;19.67;10.50;;;5.90;80.40;;;;;;5075086;28;20816;-76
2021/04/02 11:42:34;;;;;;;23.80;12.07;;;5.90;80.20;;;;;;5075088;28;20910;-76
2021/04/02 11:44:59;;;;;;;22.85;10.50;;;5.80;80.70;;;;;;5093695;28;20461;-76
2021/04/02 11:47:25;;;;;;;17.53;9.70;;;5.70;80.60;;;;;;5092752;28;20842;-76
2021/04/02 11:49:51;;;;;;;22.35;10.32;;;5.80;80.40;;;;;;5108961;28;20789;-76
2021/04/02 11:52:16;;;;;;;20.57;9.47;;;5.90;79.70;;;;;;5074905;28;20389;-76
2021/04/02 11:54:42;;;;;;;19.37;10.03;;;5.90;79.00;;;;;;5093040;28;20370;-76
2021/04/02 11:57:07;;;;;;;18.73;10.03;;;5.80;78.40;;;;;;5074233;28;20421;-76
2021/04/02 11:59:33;;;;;;;25.40;10.48;;;5.70;78.20;;;;;;5092896;28;20587;-76
2021/04/02 12:01:59;;;;;;;29.23;14.20;;;5.70;78.00;;;;;;5092914;28;20765;-76
2021/04/02 12:04:24;;;;;;;25.07;12.70;;;5.80;76.90;;;;;;5093086;28;20393;-76
2021/04/02 12:06:50;;;;;;;24.67;8.57;;;6.10;77.30;;;;;;5073612;28;20390;-76
2021/04/02 12:09:15;;;;;;;15.40;7.70;;;6.20;75.20;;;;;;5092776;28;20854;-76
2021/04/02 12:11:41;;;;;;;11.43;6.77;;;6.20;75.60;;;;;;5091833;28;20720;-76
2021/04/02 12:14:07;;;;;;;14.33;6.90;;;6.50;75.20;;;;;;5074373;28;20390;-76
2021/04/02 12:16:34;;;;;;;14.25;6.40;;;6.50;74.80;;;;;;5092399;28;20922;-76
2021/04/02 12:19:01;;;;;;;18.88;6.72;;;6.70;74.50;;;;;;5107742;28;20435;-76
2021/04/02 12:21:26;;;;;;;14.80;6.55;;;6.60;73.10;;;;;;5091594;28;20522;-76
2021/04/02 12:23:52;;;;;;;14.87;6.50;;;7.00;71.70;;;;;;5091776;28;20435;-76
2021/04/02 12:26:18;;;;;;;14.53;5.87;;;7.40;70.40;;;;;;5091400;28;20405;-76
2021/04/02 12:28:43;;;;;;;19.30;5.60;;;7.00;71.20;;;;;;5106609;28;20470;-76
2021/04/02 12:31:09;;;;;;;12.10;5.80;;;7.20;70.90;;;;;;5107187;28;20741;-76
2021/04/02 12:33:35;;;;;;;12.63;5.13;;;7.30;71.40;;;;;;5091631;28;20378;-76
2021/04/02 12:36:00;;;;;;;15.85;5.60;;;7.10;70.60;;;;;;5108332;28;20409;-76
2021/04/02 12:38:26;;;;;;;18.08;5.70;;;7.00;70.80;;;;;;5107746;28;20384;-76
2021/04/02 12:40:52;;;;;;;13.45;5.38;;;7.00;70.40;;;;;;5093009;28;20418;-76
2021/04/02 12:43:18;;;;;;;19.77;6.27;;;7.10;70.20;;;;;;5093000;28;20978;-76
2021/04/02 12:45:44;;;;;;;12.68;6.35;;;7.30;70.70;;;;;;5092767;28;20386;-76
2021/04/02 12:48:10;;;;;;;12.68;6.10;;;7.10;70.70;;;;;;5092818;28;20423;-76